• Join FlightAware (Why Join?)
  • Login
  • US Flag 
12:04AM EDT


 

Airport Tracker/Info


-or-


 

Live Flight TrackerFlight Track Log ✈ KAP29 ✈ 14-Jun-2013 ✈ KBOS - KSLK

Flight Track Log - Related Links

Times and Time Zones

All times are in EDT time to prevent confusion due to time zone crossing. See the KAP29 flight status page for this flight to view local times or setup timezone preferences in your user account.

Time Position Orientation Groundspeed Altitude Reporting Facility
EDT Latitude Longitude Course Direction KTS MPH feet Rate Location/Type
01:18PM 42.3833 -71.0000 360° North 110 127 500  Level KA90
01:18PM 42.4000 -71.0000 360° North 119 137 900 900 Climbing KA90
01:19PM 42.4333 -71.0333 324° Northwest 122 140 1,900 660 Climbing KA90
01:20PM 42.4500 -71.0667 304° West 132 152 2,400 600 Climbing KA90
01:21PM 42.4833 -71.0833 340° North 121 139 3,100 600 Climbing KA90
01:22PM 42.5167 -71.0833 360° North 117 135 3,600 600 Climbing KA90
01:23PM 42.5333 -71.0667 36° Northeast 106 122 4,300 660 Climbing KA90
01:24PM 42.5667 -71.0500 20° North 113 130 5,000 600 Climbing KA90
01:25PM 42.6000 -71.0667 340° North 118 136 5,500 480 Climbing KA90
01:26PM 42.6167 -71.1000 304° West 118 136 6,000 480 Climbing KA90
01:27PM 42.6500 -71.1167 340° North 120 138 6,500 480 Climbing KA90
01:28PM 42.6667 -71.1500 304° West 120 138 7,000 480 Climbing KA90
01:29PM 42.7000 -71.1833 324° Northwest 122 140 7,500 480 Climbing KA90
01:30PM 42.7167 -71.2167 304° West 126 145 8,000 240 Climbing KA90
01:31PM 42.7500 -71.2333 340° North 146 168 8,000  Level KA90
01:32PM 42.8000 -71.2833 324° Northwest 158 182 8,000  Level KA90
01:33PM 42.8333 -71.3167 324° Northwest 168 193 8,000  Level KA90
01:34PM 42.8667 -71.3667 312° West 170 196 8,000  Level KA90
01:35PM 42.8833 -71.4167 294° West 168 193 8,000 60 Level KA90
01:36PM 42.9167 -71.4500 324° Northwest 170 196 8,200 300 Climbing KA90
01:37PM 42.9500 -71.5000 312° West 147 169 8,700 360 Climbing KA90
01:38PM 42.9833 -71.5500 312° West 146 168 9,000 300 Climbing KA90
01:39PM 43.0000 -71.5833 304° West 144 166 9,400 300 Climbing KA90
01:40PM 43.0333 -71.6167 324° Northwest 141 162 9,700 240 Climbing KA90
01:41PM 43.0519 -71.6417 316° Northwest 152 175 9,800 180 Climbing Boston Center
01:42PM 43.0794 -71.6725 321° Northwest 152 175 10,000 60 Climbing Boston Center
01:43PM 43.1172 -71.7119 323° Northwest 157 181 10,000  Level Boston Center
01:44PM 43.1464 -71.7458 320° Northwest 157 181 10,000  Level Boston Center
01:45PM 43.1864 -71.7853 324° Northwest 157 181 10,000  Level Boston Center
01:46PM 43.2219 -71.8106 333° Northwest 157 181 10,000  Level Boston Center
01:47PM 43.2658 -71.8442 331° Northwest 157 181 10,000  Level Boston Center
01:48PM 43.3033 -71.8667 336° Northwest 157 181 10,000  Level Boston Center
01:49PM 43.3472 -71.8861 342° North 157 181 10,000  Level Boston Center
01:50PM 43.3786 -71.9231 319° Northwest 157 181 10,000  Level Boston Center
01:51PM 43.4122 -71.9656 317° Northwest 163 188 10,000  Level Boston Center
01:52PM 43.4458 -72.0169 312° West 169 194 10,000  Level Boston Center
01:53PM 43.4731 -72.0625 309° West 164 189 10,000  Level Boston Center
01:54PM 43.5003 -72.1053 311° West 158 182 10,000  Level Boston Center
01:55PM 43.5275 -72.1453 313° West 158 182 10,000  Level Boston Center
01:56PM 43.5567 -72.1881 313° West 158 182 10,000  Level Boston Center
01:57PM 43.5881 -72.2281 317° Northwest 158 182 10,000  Level Boston Center
01:58PM 43.6172 -72.2653 317° Northwest 158 182 10,000  Level Boston Center
01:59PM 43.6486 -72.3025 319° Northwest 153 176 10,000  Level Boston Center
02:00PM 43.6819 -72.3397 321° Northwest 147 169 10,000  Level Boston Center
02:01PM 43.7069 -72.3856 307° West 147 169 10,000  Level Boston Center
02:02PM 43.7300 -72.4372 302° West 152 175 10,000 -60 Level Boston Center
02:03PM 43.7592 -72.4775 315° West 152 175 9,900 -60 Descending Boston Center
02:04PM 43.7903 -72.5178 317° Northwest 152 175 9,900  Level Boston Center
02:05PM 43.8217 -72.5553 319° Northwest 147 169 9,900  Level Boston Center
02:06PM 43.8486 -72.5983 311° West 147 169 9,900  Level Boston Center
02:07PM 43.8819 -72.6444 315° West 147 169 10,000  Climbing Boston Center
02:08PM 43.9089 -72.6878 311° West 147 169 10,000  Level Boston Center
02:09PM 43.9381 -72.7342 311° West 155 178 10,000  Level Boston Center
02:10PM 43.9692 -72.7806 313° West 160 184 10,000  Level Boston Center
02:11PM 43.9919 -72.8297 303° West 160 184 10,000  Level Boston Center
02:12PM 44.0189 -72.8817 306° West 160 184 10,000  Level Boston Center
02:13PM 44.0456 -72.9311 307° West 160 184 10,000  Level Boston Center
02:14PM 44.0683 -72.9775 304° West 160 184 10,000  Level Boston Center
02:15PM 44.0931 -73.0239 307° West 155 178 10,000  Level Boston Center
02:16PM 44.1178 -73.0764 303° West 155 178 10,000  Level Boston Center
02:17PM 44.1447 -73.1228 309° West 155 178 10,000  Level Boston Center
02:18PM 44.1694 -73.1722 305° West 155 178 10,000  Level Boston Center
02:19PM 44.1961 -73.2219 307° West 155 178 10,000  Level Boston Center
02:20PM 44.2292 -73.2861 306° West 150 173 10,000  Level Boston Center
02:21PM 44.2558 -73.3386 305° West 156 180 10,000  Level Boston Center
02:22PM 44.2825 -73.3853 309° West 156 180 10,000  Level Boston Center
02:23PM 44.3050 -73.4264 307° West 156 180 10,000  Level Boston Center
02:24PM 44.3297 -73.4733 306° West 156 180 10,000 -240 Level Boston Center
02:25PM 44.3542 -73.5258 303° West 156 180 9,600 -480 Descending Boston Center
02:26PM 44.3767 -73.5700 305° West 162 186 9,100 -780 Descending Boston Center
02:27PM 44.4114 -73.6375 306° West 173 199 8,100 -900 Descending Boston Center
02:28PM 44.4400 -73.6933 306° West 178 205 7,300 -840 Descending Boston Center